Observations for SHAWBURY RAF, United Kingdom (EGOS)

EGOS 130850Z 11013KT 9999 FEW012 BKN240 02/M00 Q1015 BLU NOSIG  
EGOS 130750Z 10013KT 9999 FEW012 BKN240 02/M00 Q1015 BLU NOSIG  
EGOS 130650Z 11012KT CAVOK 02/M00 Q1015 BLU 
EGOS 130550Z 11011KT CAVOK 02/M01 Q1014 BLU 
EGOS 130450Z AUTO 11015KT 9999 NCD 02/M01 Q1014 
EGOS 130350Z AUTO 11013KT 9999 NCD 02/M00 Q1014 
EGOS 130250Z AUTO 11014KT 9999 SCT036/// 03/M00 Q1015   
EGOS 130150Z AUTO 12011KT 9999 BKN036/// 03/M01 Q1015   
EGOS 130050Z AUTO 12013KT 9999 SCT038/// 03/M01 Q1015   
EGOS 122350Z AUTO 12010KT 9999 OVC038/// 03/M01 Q1016   
EGOS 122250Z AUTO 13012KT 9999 SCT037/// 03/M01 Q1016   
EGOS 122150Z AUTO 13012KT 9999 BKN035/// 03/M01 Q1016   
EGOS 122050Z AUTO 13012KT 9999 FEW060/// 04/M01 Q1016   
EGOS 121950Z AUTO 14011KT 9999 FEW031/// 04/M00 Q1017   
EGOS 121850Z AUTO 13014KT 9999 BKN035/// 06/01 Q1017
EGOS 121750Z AUTO 13013KT 9999 FEW019/// BKN031/// 06/03 Q1017  
EGOS 121650Z 12013KT 9999 FEW018 BKN030 07/04 Q1017 BLU TEMPO SCT018 WHT
EGOS 121550Z 13013KT 9999 BKN025 BKN060 07/04 Q1018 BLU TEMPO BKN022 WHT
EGOS 121450Z 13012KT 9999 FEW020 SCT180 07/04 Q1018 BLU NOSIG   
EGOS 121427Z 15011KT 9999 FEW020 SCT050 07/04 Q1018 BLU NOSIG   
EGOS 121427Z 15011KT 9999 FEW020 SCT050 07/04 Q1018 BLU NOSIG
EGOS 121350Z 15012KT 9999 SCT020 BKN040 07/04 Q1018 WHT TEMPO FEW020 BLU
EGOS 121250Z 14011KT 9999 SCT018 SCT040 08/04 Q1019 WHT NOSIG   
EGOS 121150Z 14011KT 9999 SCT016 07/05 Q1019 WHT BECMG FEW016 BLU   
EGOS 121122Z 14011KT 9999 SCT015 SCT040 07/05 Q1020 WHT BECMG FEW015 BLU
EGOS 121122Z 14011KT 9999 SCT015 SCT040 07/05 Q1020 WHT BECMG FEW015 BLU
EGOS 121050Z 13010KT 9999 BKN012 BKN040 07/05 Q1020 GRN BECMG FEW012 BKN040 BLU 
EGOS 120950Z 13008KT 8000 HZ BKN012 BKN030 06/05 Q1020 GRN BECMG FEW012 BKN030 BLU  
EGOS 120850Z 12007KT 9999 7000N HZ BKN010 BKN035 06/05 Q1020 GRN BECMG 9999 NSW FEW010 BLU  
EGOS 120850Z 12007KT 9999 7000N HZ BKN010 BKN035 06/05 Q1020 GRN BECMG 9999 NSWFEW010 BLU